sensor_id;sensor_type;location;lat;lon;timestamp;P1;durP1;ratioP1;P2;durP2;ratioP2
25962;SDS011;13760;52.588;13.406;2022-10-30T00:00:01;47.17;;;32.35;;
25962;SDS011;13760;52.588;13.406;2022-10-30T00:02:28;49.47;;;32.47;;
25962;SDS011;13760;52.588;13.406;2022-10-30T00:04:53;50.35;;;33.65;;
25962;SDS011;13760;52.588;13.406;2022-10-30T00:07:19;49.05;;;33.55;;
25962;SDS011;13760;52.588;13.406;2022-10-30T00:09:44;50.50;;;33.20;;
25962;SDS011;13760;52.588;13.406;2022-10-30T00:12:10;47.22;;;32.20;;
25962;SDS011;13760;52.588;13.406;2022-10-30T00:14:35;46.85;;;31.02;;
25962;SDS011;13760;52.588;13.406;2022-10-30T00:17:01;43.58;;;30.63;;
25962;SDS011;13760;52.588;13.406;2022-10-30T00:19:26;45.33;;;29.40;;
25962;SDS011;13760;52.588;13.406;2022-10-30T00:21:52;44.17;;;29.08;;
25962;SDS011;13760;52.588;13.406;2022-10-30T00:24:18;45.58;;;29.13;;
25962;SDS011;13760;52.588;13.406;2022-10-30T00:26:44;43.25;;;29.40;;
25962;SDS011;13760;52.588;13.406;2022-10-30T00:29:09;42.45;;;28.42;;
25962;SDS011;13760;52.588;13.406;2022-10-30T00:31:35;45.17;;;28.38;;
25962;SDS011;13760;52.588;13.406;2022-10-30T00:34:00;40.33;;;28.65;;
25962;SDS011;13760;52.588;13.406;2022-10-30T00:36:26;39.63;;;27.40;;
25962;SDS011;13760;52.588;13.406;2022-10-30T00:38:51;43.72;;;28.20;;
25962;SDS011;13760;52.588;13.406;2022-10-30T00:41:18;39.88;;;27.58;;
25962;SDS011;13760;52.588;13.406;2022-10-30T00:43:45;44.53;;;27.45;;
25962;SDS011;13760;52.588;13.406;2022-10-30T00:48:55;33.67;;;26.00;;
25962;SDS011;13760;52.588;13.406;2022-10-30T00:51:37;46.25;;;27.17;;
25962;SDS011;13760;52.588;13.406;2022-10-30T00:54:05;40.88;;;25.77;;
25962;SDS011;13760;52.588;13.406;2022-10-30T00:56:32;44.15;;;28.23;;
25962;SDS011;13760;52.588;13.406;2022-10-30T00:59:00;40.33;;;25.85;;
25962;SDS011;13760;52.588;13.406;2022-10-30T01:01:31;38.33;;;24.98;;
25962;SDS011;13760;52.588;13.406;2022-10-30T01:04:00;40.10;;;26.38;;
25962;SDS011;13760;52.588;13.406;2022-10-30T01:06:28;35.33;;;24.90;;
25962;SDS011;13760;52.588;13.406;2022-10-30T01:08:57;41.95;;;26.00;;
25962;SDS011;13760;52.588;13.406;2022-10-30T01:11:23;38.67;;;26.13;;
25962;SDS011;13760;52.588;13.406;2022-10-30T01:13:49;47.28;;;26.85;;
25962;SDS011;13760;52.588;13.406;2022-10-30T01:27:07;37.20;;;24.73;;
25962;SDS011;13760;52.588;13.406;2022-10-30T01:35:08;37.72;;;26.67;;
25962;SDS011;13760;52.588;13.406;2022-10-30T01:37:46;37.15;;;25.80;;
25962;SDS011;13760;52.588;13.406;2022-10-30T01:40:18;38.95;;;26.70;;
25962;SDS011;13760;52.588;13.406;2022-10-30T01:45:23;37.65;;;25.70;;
25962;SDS011;13760;52.588;13.406;2022-10-30T01:53:32;39.83;;;25.90;;
25962;SDS011;13760;52.588;13.406;2022-10-30T01:59:23;35.15;;;24.73;;
25962;SDS011;13760;52.588;13.406;2022-10-30T02:02:10;39.60;;;24.45;;
25962;SDS011;13760;52.588;13.406;2022-10-30T02:04:37;41.67;;;25.45;;
25962;SDS011;13760;52.588;13.406;2022-10-30T02:07:03;40.90;;;24.33;;
25962;SDS011;13760;52.588;13.406;2022-10-30T02:09:29;35.30;;;24.50;;
25962;SDS011;13760;52.588;13.406;2022-10-30T02:11:55;41.03;;;24.40;;
25962;SDS011;13760;52.588;13.406;2022-10-30T02:14:28;36.35;;;25.02;;
25962;SDS011;13760;52.588;13.406;2022-10-30T02:16:57;43.30;;;26.63;;
25962;SDS011;13760;52.588;13.406;2022-10-30T02:19:27;35.00;;;24.90;;
25962;SDS011;13760;52.588;13.406;2022-10-30T02:21:53;41.38;;;25.75;;
25962;SDS011;13760;52.588;13.406;2022-10-30T02:24:18;43.38;;;27.27;;
25962;SDS011;13760;52.588;13.406;2022-10-30T02:26:44;39.10;;;24.77;;
25962;SDS011;13760;52.588;13.406;2022-10-30T02:29:12;38.35;;;24.33;;
25962;SDS011;13760;52.588;13.406;2022-10-30T02:31:38;37.22;;;25.08;;
25962;SDS011;13760;52.588;13.406;2022-10-30T02:34:03;38.63;;;23.30;;
25962;SDS011;13760;52.588;13.406;2022-10-30T02:36:29;32.22;;;22.55;;
25962;SDS011;13760;52.588;13.406;2022-10-30T02:38:55;40.33;;;24.17;;
25962;SDS011;13760;52.588;13.406;2022-10-30T02:41:21;37.10;;;25.33;;
25962;SDS011;13760;52.588;13.406;2022-10-30T02:43:47;36.20;;;24.25;;
25962;SDS011;13760;52.588;13.406;2022-10-30T02:46:14;35.10;;;23.20;;
25962;SDS011;13760;52.588;13.406;2022-10-30T02:48:39;40.92;;;23.75;;
25962;SDS011;13760;52.588;13.406;2022-10-30T02:51:05;33.45;;;23.38;;
25962;SDS011;13760;52.588;13.406;2022-10-30T02:53:32;37.35;;;24.05;;
25962;SDS011;13760;52.588;13.406;2022-10-30T02:56:01;38.20;;;24.52;;
25962;SDS011;13760;52.588;13.406;2022-10-30T02:58:32;44.80;;;25.27;;
25962;SDS011;13760;52.588;13.406;2022-10-30T03:01:03;39.33;;;25.02;;
25962;SDS011;13760;52.588;13.406;2022-10-30T03:03:49;35.75;;;22.52;;
25962;SDS011;13760;52.588;13.406;2022-10-30T03:06:17;36.50;;;23.13;;
25962;SDS011;13760;52.588;13.406;2022-10-30T03:08:43;38.28;;;22.75;;
25962;SDS011;13760;52.588;13.406;2022-10-30T03:11:10;34.58;;;24.05;;
25962;SDS011;13760;52.588;13.406;2022-10-30T03:13:38;36.72;;;23.25;;
25962;SDS011;13760;52.588;13.406;2022-10-30T03:16:09;34.60;;;24.20;;
25962;SDS011;13760;52.588;13.406;2022-10-30T03:18:48;32.75;;;23.33;;
25962;SDS011;13760;52.588;13.406;2022-10-30T03:21:18;32.53;;;23.73;;
25962;SDS011;13760;52.588;13.406;2022-10-30T03:26:11;38.65;;;23.40;;
25962;SDS011;13760;52.588;13.406;2022-10-30T03:28:37;40.40;;;23.60;;
25962;SDS011;13760;52.588;13.406;2022-10-30T03:31:03;32.25;;;22.83;;
25962;SDS011;13760;52.588;13.406;2022-10-30T03:33:31;35.60;;;23.73;;
25962;SDS011;13760;52.588;13.406;2022-10-30T03:35:58;38.08;;;26.00;;
25962;SDS011;13760;52.588;13.406;2022-10-30T03:38:24;40.75;;;25.73;;
25962;SDS011;13760;52.588;13.406;2022-10-30T03:40:50;41.42;;;24.77;;
25962;SDS011;13760;52.588;13.406;2022-10-30T03:43:16;44.63;;;27.23;;
25962;SDS011;13760;52.588;13.406;2022-10-30T03:45:49;42.40;;;25.92;;
25962;SDS011;13760;52.588;13.406;2022-10-30T03:48:17;41.03;;;25.42;;
25962;SDS011;13760;52.588;13.406;2022-10-30T03:50:46;36.30;;;24.48;;
25962;SDS011;13760;52.588;13.406;2022-10-30T03:53:12;42.97;;;25.85;;
25962;SDS011;13760;52.588;13.406;2022-10-30T03:55:38;38.78;;;24.70;;
25962;SDS011;13760;52.588;13.406;2022-10-30T03:58:04;40.67;;;25.77;;
25962;SDS011;13760;52.588;13.406;2022-10-30T04:00:30;39.13;;;24.05;;
25962;SDS011;13760;52.588;13.406;2022-10-30T04:02:56;35.67;;;24.50;;
25962;SDS011;13760;52.588;13.406;2022-10-30T04:05:22;38.97;;;25.67;;
25962;SDS011;13760;52.588;13.406;2022-10-30T04:07:54;38.80;;;24.55;;
25962;SDS011;13760;52.588;13.406;2022-10-30T04:10:24;33.28;;;22.90;;
25962;SDS011;13760;52.588;13.406;2022-10-30T04:12:50;36.15;;;24.58;;
25962;SDS011;13760;52.588;13.406;2022-10-30T04:15:17;39.70;;;23.35;;
25962;SDS011;13760;52.588;13.406;2022-10-30T04:17:49;39.75;;;23.95;;
25962;SDS011;13760;52.588;13.406;2022-10-30T04:20:15;33.22;;;23.65;;
25962;SDS011;13760;52.588;13.406;2022-10-30T04:22:42;40.10;;;25.42;;
25962;SDS011;13760;52.588;13.406;2022-10-30T04:25:07;34.90;;;23.13;;
25962;SDS011;13760;52.588;13.406;2022-10-30T04:27:43;40.22;;;24.75;;
25962;SDS011;13760;52.588;13.406;2022-10-30T04:30:12;37.63;;;24.02;;
25962;SDS011;13760;52.588;13.406;2022-10-30T04:32:47;35.45;;;23.23;;
25962;SDS011;13760;52.588;13.406;2022-10-30T04:35:14;38.28;;;23.92;;
25962;SDS011;13760;52.588;13.406;2022-10-30T04:37:41;35.05;;;22.83;;
25962;SDS011;13760;52.588;13.406;2022-10-30T04:40:07;36.53;;;23.67;;
25962;SDS011;13760;52.588;13.406;2022-10-30T04:42:34;41.42;;;24.13;;
25962;SDS011;13760;52.588;13.406;2022-10-30T04:44:59;35.30;;;23.10;;
25962;SDS011;13760;52.588;13.406;2022-10-30T04:47:26;44.80;;;23.40;;
25962;SDS011;13760;52.588;13.406;2022-10-30T04:49:52;36.55;;;23.73;;
25962;SDS011;13760;52.588;13.406;2022-10-30T04:52:17;34.72;;;22.45;;
25962;SDS011;13760;52.588;13.406;2022-10-30T04:54:43;40.08;;;23.73;;
25962;SDS011;13760;52.588;13.406;2022-10-30T04:57:09;33.03;;;22.05;;
25962;SDS011;13760;52.588;13.406;2022-10-30T04:59:34;33.63;;;23.67;;
25962;SDS011;13760;52.588;13.406;2022-10-30T05:02:03;35.17;;;23.45;;
25962;SDS011;13760;52.588;13.406;2022-10-30T05:04:47;37.53;;;22.85;;
25962;SDS011;13760;52.588;13.406;2022-10-30T05:07:12;35.88;;;23.83;;
25962;SDS011;13760;52.588;13.406;2022-10-30T05:09:39;38.13;;;23.05;;
25962;SDS011;13760;52.588;13.406;2022-10-30T05:12:05;30.25;;;21.50;;
25962;SDS011;13760;52.588;13.406;2022-10-30T05:14:31;35.22;;;23.15;;
25962;SDS011;13760;52.588;13.406;2022-10-30T05:16:57;34.72;;;23.27;;
25962;SDS011;13760;52.588;13.406;2022-10-30T05:19:23;34.97;;;22.85;;
25962;SDS011;13760;52.588;13.406;2022-10-30T05:21:49;31.23;;;23.40;;
25962;SDS011;13760;52.588;13.406;2022-10-30T05:24:14;37.05;;;23.27;;
25962;SDS011;13760;52.588;13.406;2022-10-30T05:26:40;37.47;;;22.88;;
25962;SDS011;13760;52.588;13.406;2022-10-30T05:29:06;38.30;;;23.60;;
25962;SDS011;13760;52.588;13.406;2022-10-30T05:31:31;41.75;;;23.58;;
25962;SDS011;13760;52.588;13.406;2022-10-30T05:33:57;34.50;;;21.90;;
25962;SDS011;13760;52.588;13.406;2022-10-30T05:36:25;41.08;;;24.73;;
25962;SDS011;13760;52.588;13.406;2022-10-30T05:38:51;38.75;;;24.40;;
25962;SDS011;13760;52.588;13.406;2022-10-30T05:41:17;38.25;;;24.35;;
25962;SDS011;13760;52.588;13.406;2022-10-30T05:43:42;37.42;;;24.20;;
25962;SDS011;13760;52.588;13.406;2022-10-30T05:46:08;40.30;;;23.73;;
25962;SDS011;13760;52.588;13.406;2022-10-30T05:48:33;33.33;;;22.58;;
25962;SDS011;13760;52.588;13.406;2022-10-30T05:50:59;35.80;;;22.42;;
25962;SDS011;13760;52.588;13.406;2022-10-30T05:53:25;34.95;;;22.95;;
25962;SDS011;13760;52.588;13.406;2022-10-30T05:55:50;36.25;;;21.42;;
25962;SDS011;13760;52.588;13.406;2022-10-30T05:58:19;34.00;;;21.60;;
25962;SDS011;13760;52.588;13.406;2022-10-30T06:00:45;32.35;;;21.63;;
25962;SDS011;13760;52.588;13.406;2022-10-30T06:03:11;32.30;;;21.70;;
25962;SDS011;13760;52.588;13.406;2022-10-30T06:05:37;27.83;;;20.92;;
25962;SDS011;13760;52.588;13.406;2022-10-30T06:08:04;38.10;;;21.80;;
25962;SDS011;13760;52.588;13.406;2022-10-30T06:10:31;36.15;;;21.02;;
25962;SDS011;13760;52.588;13.406;2022-10-30T06:12:58;31.48;;;21.35;;
25962;SDS011;13760;52.588;13.406;2022-10-30T06:15:25;33.88;;;21.52;;
25962;SDS011;13760;52.588;13.406;2022-10-30T06:17:51;29.25;;;21.05;;
25962;SDS011;13760;52.588;13.406;2022-10-30T06:20:18;31.35;;;21.70;;
25962;SDS011;13760;52.588;13.406;2022-10-30T06:25:20;34.88;;;21.02;;
25962;SDS011;13760;52.588;13.406;2022-10-30T06:27:46;32.40;;;21.35;;
25962;SDS011;13760;52.588;13.406;2022-10-30T06:30:11;37.38;;;20.92;;
25962;SDS011;13760;52.588;13.406;2022-10-30T06:32:37;30.15;;;21.20;;
25962;SDS011;13760;52.588;13.406;2022-10-30T06:35:03;36.22;;;21.40;;
25962;SDS011;13760;52.588;13.406;2022-10-30T06:37:29;32.67;;;20.73;;
25962;SDS011;13760;52.588;13.406;2022-10-30T06:39:54;33.28;;;21.35;;
25962;SDS011;13760;52.588;13.406;2022-10-30T06:42:20;32.42;;;21.50;;
25962;SDS011;13760;52.588;13.406;2022-10-30T06:44:45;33.35;;;22.05;;
25962;SDS011;13760;52.588;13.406;2022-10-30T06:47:12;35.22;;;20.27;;
25962;SDS011;13760;52.588;13.406;2022-10-30T06:49:39;37.75;;;21.15;;
25962;SDS011;13760;52.588;13.406;2022-10-30T06:52:04;34.72;;;21.17;;
25962;SDS011;13760;52.588;13.406;2022-10-30T06:54:30;39.00;;;21.88;;
25962;SDS011;13760;52.588;13.406;2022-10-30T06:56:56;31.13;;;20.60;;
25962;SDS011;13760;52.588;13.406;2022-10-30T06:59:22;34.40;;;21.40;;
25962;SDS011;13760;52.588;13.406;2022-10-30T07:01:48;40.83;;;23.13;;
25962;SDS011;13760;52.588;13.406;2022-10-30T07:04:14;39.58;;;20.83;;
25962;SDS011;13760;52.588;13.406;2022-10-30T07:06:39;32.22;;;22.02;;
25962;SDS011;13760;52.588;13.406;2022-10-30T07:09:05;36.17;;;21.55;;
25962;SDS011;13760;52.588;13.406;2022-10-30T07:11:30;35.58;;;20.25;;
25962;SDS011;13760;52.588;13.406;2022-10-30T07:13:56;34.92;;;20.85;;
25962;SDS011;13760;52.588;13.406;2022-10-30T07:16:27;33.83;;;20.52;;
25962;SDS011;13760;52.588;13.406;2022-10-30T07:18:53;31.52;;;20.55;;
25962;SDS011;13760;52.588;13.406;2022-10-30T07:21:20;38.47;;;21.20;;
25962;SDS011;13760;52.588;13.406;2022-10-30T07:23:45;33.28;;;20.10;;
25962;SDS011;13760;52.588;13.406;2022-10-30T07:26:11;28.85;;;20.65;;
25962;SDS011;13760;52.588;13.406;2022-10-30T07:28:36;34.28;;;20.98;;
25962;SDS011;13760;52.588;13.406;2022-10-30T07:31:02;32.00;;;19.63;;
25962;SDS011;13760;52.588;13.406;2022-10-30T07:33:27;35.03;;;19.70;;
25962;SDS011;13760;52.588;13.406;2022-10-30T07:35:53;32.58;;;20.52;;
25962;SDS011;13760;52.588;13.406;2022-10-30T07:38:18;32.58;;;18.48;;
25962;SDS011;13760;52.588;13.406;2022-10-30T07:40:50;35.80;;;20.08;;
25962;SDS011;13760;52.588;13.406;2022-10-30T07:43:17;28.05;;;19.23;;
25962;SDS011;13760;52.588;13.406;2022-10-30T07:45:43;31.02;;;19.13;;
25962;SDS011;13760;52.588;13.406;2022-10-30T07:48:09;27.45;;;18.63;;
25962;SDS011;13760;52.588;13.406;2022-10-30T07:50:35;33.42;;;19.50;;
25962;SDS011;13760;52.588;13.406;2022-10-30T07:53:00;32.88;;;18.45;;
25962;SDS011;13760;52.588;13.406;2022-10-30T07:55:26;27.52;;;18.15;;
25962;SDS011;13760;52.588;13.406;2022-10-30T07:57:52;29.45;;;18.02;;
25962;SDS011;13760;52.588;13.406;2022-10-30T08:00:17;27.63;;;17.02;;
25962;SDS011;13760;52.588;13.406;2022-10-30T08:02:43;26.13;;;16.58;;
25962;SDS011;13760;52.588;13.406;2022-10-30T08:05:12;32.58;;;16.63;;
25962;SDS011;13760;52.588;13.406;2022-10-30T08:07:38;24.65;;;15.57;;
25962;SDS011;13760;52.588;13.406;2022-10-30T08:10:04;28.88;;;14.82;;
25962;SDS011;13760;52.588;13.406;2022-10-30T08:12:31;25.77;;;13.77;;
25962;SDS011;13760;52.588;13.406;2022-10-30T08:14:58;25.27;;;13.93;;
25962;SDS011;13760;52.588;13.406;2022-10-30T08:17:23;19.40;;;13.43;;
25962;SDS011;13760;52.588;13.406;2022-10-30T08:19:49;24.63;;;12.88;;
25962;SDS011;13760;52.588;13.406;2022-10-30T08:22:14;30.90;;;13.63;;
25962;SDS011;13760;52.588;13.406;2022-10-30T08:24:40;25.13;;;13.13;;
25962;SDS011;13760;52.588;13.406;2022-10-30T08:27:06;22.48;;;12.48;;
25962;SDS011;13760;52.588;13.406;2022-10-30T08:29:31;20.15;;;12.88;;
25962;SDS011;13760;52.588;13.406;2022-10-30T08:31:58;26.52;;;13.02;;
25962;SDS011;13760;52.588;13.406;2022-10-30T08:34:24;22.73;;;12.90;;
25962;SDS011;13760;52.588;13.406;2022-10-30T08:36:51;22.00;;;12.30;;
25962;SDS011;13760;52.588;13.406;2022-10-30T08:39:17;20.17;;;12.48;;
25962;SDS011;13760;52.588;13.406;2022-10-30T08:41:43;22.02;;;12.52;;
25962;SDS011;13760;52.588;13.406;2022-10-30T08:44:09;27.20;;;13.60;;
25962;SDS011;13760;52.588;13.406;2022-10-30T08:46:35;25.40;;;12.27;;
25962;SDS011;13760;52.588;13.406;2022-10-30T08:49:00;28.55;;;13.27;;
25962;SDS011;13760;52.588;13.406;2022-10-30T08:51:26;22.10;;;12.48;;
25962;SDS011;13760;52.588;13.406;2022-10-30T08:53:51;25.73;;;13.00;;
25962;SDS011;13760;52.588;13.406;2022-10-30T08:56:17;21.88;;;12.63;;
25962;SDS011;13760;52.588;13.406;2022-10-30T08:58:43;21.05;;;11.60;;
25962;SDS011;13760;52.588;13.406;2022-10-30T09:01:08;24.67;;;11.93;;
25962;SDS011;13760;52.588;13.406;2022-10-30T09:03:34;28.60;;;12.13;;
25962;SDS011;13760;52.588;13.406;2022-10-30T09:06:00;19.45;;;11.23;;
25962;SDS011;13760;52.588;13.406;2022-10-30T09:08:26;25.73;;;12.43;;
25962;SDS011;13760;52.588;13.406;2022-10-30T09:10:53;24.65;;;11.27;;
25962;SDS011;13760;52.588;13.406;2022-10-30T09:13:19;23.48;;;11.02;;
25962;SDS011;13760;52.588;13.406;2022-10-30T09:15:45;19.77;;;10.85;;
25962;SDS011;13760;52.588;13.406;2022-10-30T09:18:10;20.00;;;10.70;;
25962;SDS011;13760;52.588;13.406;2022-10-30T09:20:36;19.50;;;9.32;;
25962;SDS011;13760;52.588;13.406;2022-10-30T09:23:02;26.67;;;9.48;;
25962;SDS011;13760;52.588;13.406;2022-10-30T09:25:27;17.33;;;8.73;;
25962;SDS011;13760;52.588;13.406;2022-10-30T09:27:53;18.33;;;9.20;;
25962;SDS011;13760;52.588;13.406;2022-10-30T09:30:19;21.52;;;9.50;;
25962;SDS011;13760;52.588;13.406;2022-10-30T09:32:45;19.90;;;9.27;;
25962;SDS011;13760;52.588;13.406;2022-10-30T09:35:10;24.17;;;9.25;;
25962;SDS011;13760;52.588;13.406;2022-10-30T09:37:37;19.52;;;8.43;;
25962;SDS011;13760;52.588;13.406;2022-10-30T09:40:03;20.73;;;8.88;;
25962;SDS011;13760;52.588;13.406;2022-10-30T09:42:40;22.67;;;8.27;;
25962;SDS011;13760;52.588;13.406;2022-10-30T09:50:41;19.98;;;8.43;;
25962;SDS011;13760;52.588;13.406;2022-10-30T09:53:21;20.85;;;8.02;;
25962;SDS011;13760;52.588;13.406;2022-10-30T09:59:07;18.58;;;8.38;;
25962;SDS011;13760;52.588;13.406;2022-10-30T10:01:48;21.58;;;8.13;;
25962;SDS011;13760;52.588;13.406;2022-10-30T10:04:43;17.10;;;8.35;;
25962;SDS011;13760;52.588;13.406;2022-10-30T10:07:18;19.27;;;8.30;;
25962;SDS011;13760;52.588;13.406;2022-10-30T10:09:50;17.13;;;7.43;;
25962;SDS011;13760;52.588;13.406;2022-10-30T10:12:22;18.05;;;8.10;;
25962;SDS011;13760;52.588;13.406;2022-10-30T10:14:55;21.88;;;7.45;;
25962;SDS011;13760;52.588;13.406;2022-10-30T10:17:33;17.02;;;7.85;;
25962;SDS011;13760;52.588;13.406;2022-10-30T10:20:05;15.40;;;7.07;;
25962;SDS011;13760;52.588;13.406;2022-10-30T10:22:56;16.00;;;7.15;;
25962;SDS011;13760;52.588;13.406;2022-10-30T10:25:27;16.08;;;7.80;;
25962;SDS011;13760;52.588;13.406;2022-10-30T10:28:20;16.98;;;7.45;;
25962;SDS011;13760;52.588;13.406;2022-10-30T10:31:17;14.60;;;6.25;;
25962;SDS011;13760;52.588;13.406;2022-10-30T10:37:16;16.67;;;7.40;;
25962;SDS011;13760;52.588;13.406;2022-10-30T10:42:43;19.20;;;7.10;;
25962;SDS011;13760;52.588;13.406;2022-10-30T10:48:22;16.55;;;6.32;;
25962;SDS011;13760;52.588;13.406;2022-10-30T10:53:54;15.13;;;6.72;;
25962;SDS011;13760;52.588;13.406;2022-10-30T10:56:28;17.60;;;6.95;;
25962;SDS011;13760;52.588;13.406;2022-10-30T10:58:59;18.05;;;6.35;;
25962;SDS011;13760;52.588;13.406;2022-10-30T11:01:33;16.65;;;6.43;;
25962;SDS011;13760;52.588;13.406;2022-10-30T11:04:17;16.90;;;6.85;;
25962;SDS011;13760;52.588;13.406;2022-10-30T11:06:56;14.63;;;6.38;;
25962;SDS011;13760;52.588;13.406;2022-10-30T11:09:23;13.27;;;7.05;;
25962;SDS011;13760;52.588;13.406;2022-10-30T11:11:53;14.75;;;6.28;;
25962;SDS011;13760;52.588;13.406;2022-10-30T11:14:21;18.40;;;6.47;;
25962;SDS011;13760;52.588;13.406;2022-10-30T11:19:16;17.25;;;6.38;;
25962;SDS011;13760;52.588;13.406;2022-10-30T11:21:48;14.18;;;5.68;;
25962;SDS011;13760;52.588;13.406;2022-10-30T11:24:25;18.13;;;6.25;;
25962;SDS011;13760;52.588;13.406;2022-10-30T11:26:53;16.60;;;6.28;;
25962;SDS011;13760;52.588;13.406;2022-10-30T11:31:58;14.98;;;6.53;;
25962;SDS011;13760;52.588;13.406;2022-10-30T11:34:33;18.52;;;5.55;;
25962;SDS011;13760;52.588;13.406;2022-10-30T11:37:00;15.27;;;7.15;;
25962;SDS011;13760;52.588;13.406;2022-10-30T11:39:31;12.52;;;6.03;;
25962;SDS011;13760;52.588;13.406;2022-10-30T11:44:47;20.30;;;5.82;;
25962;SDS011;13760;52.588;13.406;2022-10-30T11:47:13;13.80;;;5.75;;
25962;SDS011;13760;52.588;13.406;2022-10-30T11:52:21;23.00;;;6.32;;
25962;SDS011;13760;52.588;13.406;2022-10-30T11:55:01;12.93;;;6.32;;
25962;SDS011;13760;52.588;13.406;2022-10-30T11:57:42;13.00;;;5.47;;
25962;SDS011;13760;52.588;13.406;2022-10-30T12:08:11;18.23;;;5.93;;
25962;SDS011;13760;52.588;13.406;2022-10-30T12:13:21;17.75;;;5.35;;
25962;SDS011;13760;52.588;13.406;2022-10-30T12:16:08;20.25;;;5.82;;
25962;SDS011;13760;52.588;13.406;2022-10-30T12:18:42;19.83;;;5.85;;
25962;SDS011;13760;52.588;13.406;2022-10-30T12:21:40;15.88;;;5.43;;
25962;SDS011;13760;52.588;13.406;2022-10-30T12:24:37;14.95;;;5.65;;
25962;SDS011;13760;52.588;13.406;2022-10-30T12:27:10;12.43;;;5.32;;
25962;SDS011;13760;52.588;13.406;2022-10-30T12:29:39;13.93;;;5.20;;
25962;SDS011;13760;52.588;13.406;2022-10-30T12:32:21;20.50;;;6.40;;
25962;SDS011;13760;52.588;13.406;2022-10-30T12:37:25;13.73;;;5.32;;
25962;SDS011;13760;52.588;13.406;2022-10-30T12:39:57;17.92;;;6.13;;
25962;SDS011;13760;52.588;13.406;2022-10-30T12:42:55;15.30;;;5.63;;
25962;SDS011;13760;52.588;13.406;2022-10-30T12:45:44;20.13;;;5.70;;
25962;SDS011;13760;52.588;13.406;2022-10-30T12:53:37;15.50;;;5.70;;
25962;SDS011;13760;52.588;13.406;2022-10-30T12:56:17;19.77;;;5.55;;
25962;SDS011;13760;52.588;13.406;2022-10-30T12:58:52;15.45;;;5.63;;
25962;SDS011;13760;52.588;13.406;2022-10-30T13:01:46;16.02;;;5.72;;
25962;SDS011;13760;52.588;13.406;2022-10-30T13:04:16;18.30;;;5.28;;
25962;SDS011;13760;52.588;13.406;2022-10-30T13:07:02;17.50;;;5.93;;
25962;SDS011;13760;52.588;13.406;2022-10-30T13:12:30;15.18;;;5.50;;
25962;SDS011;13760;52.588;13.406;2022-10-30T13:15:01;16.58;;;5.47;;
25962;SDS011;13760;52.588;13.406;2022-10-30T13:17:30;15.35;;;5.72;;
25962;SDS011;13760;52.588;13.406;2022-10-30T13:19:56;15.20;;;5.30;;
25962;SDS011;13760;52.588;13.406;2022-10-30T13:30:37;19.10;;;5.25;;
25962;SDS011;13760;52.588;13.406;2022-10-30T13:36:30;21.08;;;5.63;;
25962;SDS011;13760;52.588;13.406;2022-10-30T13:45:00;16.15;;;5.00;;
25962;SDS011;13760;52.588;13.406;2022-10-30T13:47:33;15.40;;;5.70;;
25962;SDS011;13760;52.588;13.406;2022-10-30T13:53:17;16.63;;;5.40;;
25962;SDS011;13760;52.588;13.406;2022-10-30T13:55:47;17.70;;;5.05;;
25962;SDS011;13760;52.588;13.406;2022-10-30T14:01:14;13.00;;;5.32;;
25962;SDS011;13760;52.588;13.406;2022-10-30T14:06:08;17.63;;;5.70;;
25962;SDS011;13760;52.588;13.406;2022-10-30T14:11:09;16.88;;;5.50;;
25962;SDS011;13760;52.588;13.406;2022-10-30T14:13:43;17.00;;;5.47;;
25962;SDS011;13760;52.588;13.406;2022-10-30T14:19:11;15.35;;;5.68;;
25962;SDS011;13760;52.588;13.406;2022-10-30T14:21:54;13.60;;;4.78;;
25962;SDS011;13760;52.588;13.406;2022-10-30T14:26:53;14.27;;;5.30;;
25962;SDS011;13760;52.588;13.406;2022-10-30T14:31:58;15.40;;;5.80;;
25962;SDS011;13760;52.588;13.406;2022-10-30T14:34:44;13.35;;;4.95;;
25962;SDS011;13760;52.588;13.406;2022-10-30T14:37:10;15.15;;;5.72;;
25962;SDS011;13760;52.588;13.406;2022-10-30T14:39:40;18.85;;;5.85;;
25962;SDS011;13760;52.588;13.406;2022-10-30T14:42:15;11.95;;;5.43;;
25962;SDS011;13760;52.588;13.406;2022-10-30T14:56:49;15.82;;;5.85;;
25962;SDS011;13760;52.588;13.406;2022-10-30T15:07:24;12.52;;;6.22;;
25962;SDS011;13760;52.588;13.406;2022-10-30T15:15:44;20.83;;;6.60;;
25962;SDS011;13760;52.588;13.406;2022-10-30T15:18:20;20.00;;;6.78;;
25962;SDS011;13760;52.588;13.406;2022-10-30T15:20:49;16.65;;;6.90;;
25962;SDS011;13760;52.588;13.406;2022-10-30T15:23:28;15.68;;;6.30;;
25962;SDS011;13760;52.588;13.406;2022-10-30T15:26:13;17.65;;;6.72;;
25962;SDS011;13760;52.588;13.406;2022-10-30T15:28:45;19.33;;;6.75;;
25962;SDS011;13760;52.588;13.406;2022-10-30T15:31:27;19.63;;;6.75;;
25962;SDS011;13760;52.588;13.406;2022-10-30T15:33:53;21.25;;;7.15;;
25962;SDS011;13760;52.588;13.406;2022-10-30T15:39:04;19.15;;;7.18;;
25962;SDS011;13760;52.588;13.406;2022-10-30T15:41:35;14.98;;;6.70;;
25962;SDS011;13760;52.588;13.406;2022-10-30T15:44:08;15.73;;;6.80;;
25962;SDS011;13760;52.588;13.406;2022-10-30T15:46:35;15.68;;;7.13;;
25962;SDS011;13760;52.588;13.406;2022-10-30T15:49:00;21.33;;;7.82;;
25962;SDS011;13760;52.588;13.406;2022-10-30T15:51:26;13.80;;;7.40;;
25962;SDS011;13760;52.588;13.406;2022-10-30T15:53:55;13.90;;;6.97;;
25962;SDS011;13760;52.588;13.406;2022-10-30T15:56:28;16.30;;;7.57;;
25962;SDS011;13760;52.588;13.406;2022-10-30T15:59:22;15.95;;;8.27;;
25962;SDS011;13760;52.588;13.406;2022-10-30T16:01:51;14.23;;;8.40;;
25962;SDS011;13760;52.588;13.406;2022-10-30T16:04:19;16.23;;;8.52;;
25962;SDS011;13760;52.588;13.406;2022-10-30T16:06:51;18.77;;;9.88;;
25962;SDS011;13760;52.588;13.406;2022-10-30T16:09:18;24.35;;;8.48;;
25962;SDS011;13760;52.588;13.406;2022-10-30T16:11:45;20.60;;;9.20;;
25962;SDS011;13760;52.588;13.406;2022-10-30T16:14:13;17.75;;;9.57;;
25962;SDS011;13760;52.588;13.406;2022-10-30T16:16:46;23.10;;;9.55;;
25962;SDS011;13760;52.588;13.406;2022-10-30T16:19:15;21.88;;;10.30;;
25962;SDS011;13760;52.588;13.406;2022-10-30T16:21:51;21.98;;;10.23;;
25962;SDS011;13760;52.588;13.406;2022-10-30T16:24:18;22.48;;;10.48;;
25962;SDS011;13760;52.588;13.406;2022-10-30T16:27:12;22.60;;;9.93;;
25962;SDS011;13760;52.588;13.406;2022-10-30T16:29:49;24.15;;;10.60;;
25962;SDS011;13760;52.588;13.406;2022-10-30T16:32:22;27.67;;;10.57;;
25962;SDS011;13760;52.588;13.406;2022-10-30T16:34:49;27.08;;;11.77;;
25962;SDS011;13760;52.588;13.406;2022-10-30T16:37:21;27.98;;;11.38;;
25962;SDS011;13760;52.588;13.406;2022-10-30T16:39:51;21.10;;;10.82;;
25962;SDS011;13760;52.588;13.406;2022-10-30T16:42:19;25.10;;;11.30;;
25962;SDS011;13760;52.588;13.406;2022-10-30T16:44:49;17.77;;;10.45;;
25962;SDS011;13760;52.588;13.406;2022-10-30T16:49:41;27.35;;;12.05;;
25962;SDS011;13760;52.588;13.406;2022-10-30T16:52:11;31.33;;;14.98;;
25962;SDS011;13760;52.588;13.406;2022-10-30T16:54:39;25.45;;;12.48;;
25962;SDS011;13760;52.588;13.406;2022-10-30T16:57:19;22.42;;;11.05;;
25962;SDS011;13760;52.588;13.406;2022-10-30T16:59:50;26.10;;;13.63;;
25962;SDS011;13760;52.588;13.406;2022-10-30T17:02:25;31.98;;;14.23;;